Time;durP1;ratioP1;P1;durP2;ratioP2;P2;SDS_P1;SDS_P2;PMS_P1;PMS_P2;Temp;Humidity;BMP_temperature;BMP_pressure;BME280_temperature;BME280_humidity;BME280_pressure;Samples;Min_cycle;Max_cycle;Signal;HPM_P1;HPM_P2
2022/05/24 00:01:32;;;;;;;9.27;5.22;;;;;;;;;;4989579;28;20365;-77
2022/05/24 00:03:59;;;;;;;9.52;5.10;;;;;;;;;;4977518;28;20042;-77
2022/05/24 00:06:27;;;;;;;6.53;4.90;;;;;;;;;;4989359;28;20124;-77
2022/05/24 00:08:53;;;;;;;8.30;4.85;;;;;;;;;;4989522;28;20061;-77
2022/05/24 00:11:19;;;;;;;10.57;5.15;;;;;;;;;;4990488;28;20034;-77
2022/05/24 00:13:45;;;;;;;10.00;5.47;;;;;;;;;;4988979;28;20038;-77
2022/05/24 00:16:11;;;;;;;9.65;5.75;;;;;;;;;;4972722;28;20043;-77
2022/05/24 00:18:37;;;;;;;8.05;5.53;;;;;;;;;;4969498;28;20057;-77
2022/05/24 00:21:05;;;;;;;10.73;5.88;;;;;;;;;;4970250;28;20047;-78
2022/05/24 00:23:31;;;;;;;7.90;5.25;;;;;;;;;;4969396;28;20105;-77
2022/05/24 00:25:59;;;;;;;9.07;5.65;;;;;;;;;;4971883;28;20050;-77
2022/05/24 00:28:27;;;;;;;8.93;4.80;;;;;;;;;;4976167;28;20046;-77
2022/05/24 00:30:53;;;;;;;7.72;5.43;;;;;;;;;;4988972;28;20065;-77
2022/05/24 00:33:21;;;;;;;10.68;5.80;;;;;;;;;;4989040;28;20046;-78
2022/05/24 00:35:48;;;;;;;8.20;5.90;;;;;;;;;;4984823;28;20097;-75
2022/05/24 00:38:16;;;;;;;9.90;5.43;;;;;;;;;;5002415;28;20502;-75
2022/05/24 00:40:45;;;;;;;10.38;5.40;;;;;;;;;;4969854;28;20081;-76
2022/05/24 00:43:14;;;;;;;9.60;6.10;;;;;;;;;;4969472;28;20129;-76
2022/05/24 00:45:43;;;;;;;8.57;6.00;;;;;;;;;;4969598;28;20371;-77
2022/05/24 00:48:18;;;;;;;11.13;5.50;;;;;;;;;;4966367;28;20079;-77
2022/05/24 00:50:47;;;;;;;11.38;5.85;;;;;;;;;;4965868;28;20097;-76
2022/05/24 00:53:32;;;;;;;9.55;6.10;;;;;;;;;;4972063;28;20038;-76
2022/05/24 00:56:09;;;;;;;10.98;6.28;;;;;;;;;;4969518;28;20045;-76
2022/05/24 00:58:42;;;;;;;10.98;6.18;;;;;;;;;;5003489;28;20129;-77
2022/05/24 01:01:28;;;;;;;8.85;6.57;;;;;;;;;;4972654;28;20046;-77
2022/05/24 01:03:54;;;;;;;11.18;7.10;;;;;;;;;;4978057;28;20161;-77
2022/05/24 01:06:21;;;;;;;11.50;7.95;;;;;;;;;;4993971;28;20062;-77
2022/05/24 01:08:47;;;;;;;11.70;7.43;;;;;;;;;;4987169;28;20151;-77
2022/05/24 01:11:14;;;;;;;12.77;8.38;;;;;;;;;;4969307;28;20046;-77
2022/05/24 01:13:41;;;;;;;12.07;8.15;;;;;;;;;;4968967;28;20034;-77
2022/05/24 01:16:07;;;;;;;13.27;9.00;;;;;;;;;;4969280;28;20050;-77
2022/05/24 01:18:33;;;;;;;17.45;9.07;;;;;;;;;;4970770;28;20135;-77
2022/05/24 01:21:08;;;;;;;13.18;9.40;;;;;;;;;;4969245;28;20090;-77
2022/05/24 01:23:50;;;;;;;14.95;9.50;;;;;;;;;;4968851;28;20189;-77
2022/05/24 01:26:34;;;;;;;18.70;10.93;;;;;;;;;;4973024;28;20038;-77
2022/05/24 01:29:03;;;;;;;16.25;10.38;;;;;;;;;;5001721;28;20039;-77
2022/05/24 01:36:09;;;;;;;15.32;10.32;;;;;;;;;;5002594;28;20039;-77
2022/05/24 01:37:01;;;;;;;16.70;10.98;;;;;;;;;;5003640;28;20069;-78
2022/05/24 01:39:27;;;;;;;19.65;11.60;;;;;;;;;;5005460;28;20174;-78
2022/05/24 01:41:53;;;;;;;20.40;12.25;;;;;;;;;;5005335;28;20069;-77
2022/05/24 01:44:23;;;;;;;17.80;12.27;;;;;;;;;;5006313;28;20450;-77
2022/05/24 01:46:49;;;;;;;17.73;12.30;;;;;;;;;;4973826;28;20516;-77
2022/05/24 01:49:19;;;;;;;19.80;12.70;;;;;;;;;;4957157;28;20093;-77
2022/05/24 01:51:55;;;;;;;18.35;12.90;;;;;;;;;;4972641;28;20042;-77
2022/05/24 01:54:21;;;;;;;;;;;;;;;;;;4973414;28;20454;-78
2022/05/24 01:56:51;;;;;;;20.90;13.80;;;;;;;;;;4978826;28;19961;-78
2022/05/24 01:59:18;;;;;;;22.45;14.93;;;;;;;;;;5005628;28;20046;-77
2022/05/24 02:01:47;;;;;;;23.13;14.63;;;;;;;;;;4971656;28;20058;-77
2022/05/24 02:04:13;;;;;;;26.35;14.80;;;;;;;;;;4961595;28;20040;-77
2022/05/24 02:06:40;;;;;;;24.35;15.05;;;;;;;;;;4986500;28;20514;-77
2022/05/24 02:09:07;;;;;;;22.63;14.90;;;;;;;;;;4972255;28;20050;-77
2022/05/24 02:11:34;;;;;;;25.17;15.38;;;;;;;;;;4991903;28;20038;-77
2022/05/24 02:14:05;;;;;;;24.55;15.80;;;;;;;;;;4992004;28;20045;-77
2022/05/24 02:16:33;;;;;;;24.10;15.70;;;;;;;;;;4991890;28;20093;-78
2022/05/24 02:19:00;;;;;;;26.00;15.60;;;;;;;;;;4976680;28;20046;-77
2022/05/24 02:21:26;;;;;;;27.70;16.67;;;;;;;;;;4973117;28;20047;-77
2022/05/24 02:23:52;;;;;;;29.92;17.13;;;;;;;;;;4988777;28;20058;-78
2022/05/24 02:26:20;;;;;;;29.30;17.83;;;;;;;;;;4972277;28;20042;-77
2022/05/24 02:28:50;;;;;;;31.58;18.08;;;;;;;;;;5004142;28;20055;-77
2022/05/24 02:31:19;;;;;;;35.42;19.20;;;;;;;;;;4972210;28;20214;-78
2022/05/24 02:33:46;;;;;;;31.60;19.35;;;;;;;;;;4973602;28;20132;-77
2022/05/24 02:36:13;;;;;;;35.90;20.08;;;;;;;;;;4991837;28;20125;-77
2022/05/24 02:38:39;;;;;;;40.30;21.27;;;;;;;;;;4983807;28;20044;-77
2022/05/24 02:43:50;;;;;;;41.15;22.40;;;;;;;;;;4991404;28;20067;-77
2022/05/24 02:46:17;;;;;;;42.65;24.70;;;;;;;;;;4989652;28;20045;-78
2022/05/24 02:48:43;;;;;;;44.03;24.30;;;;;;;;;;4971736;28;20494;-77
2022/05/24 02:51:10;;;;;;;44.08;24.50;;;;;;;;;;4972131;28;20046;-78
2022/05/24 02:53:37;;;;;;;46.75;26.08;;;;;;;;;;4955721;28;20262;-77
2022/05/24 02:56:04;;;;;;;49.92;26.40;;;;;;;;;;5004488;28;20043;-77
2022/05/24 02:58:31;;;;;;;50.70;27.83;;;;;;;;;;5006665;28;20043;-77
2022/05/24 03:00:57;;;;;;;48.25;26.85;;;;;;;;;;4989190;28;20042;-77
2022/05/24 03:03:23;;;;;;;45.75;26.25;;;;;;;;;;4987406;28;20034;-77
2022/05/24 03:05:49;;;;;;;48.55;27.33;;;;;;;;;;4970965;28;20078;-76
2022/05/24 03:11:01;;;;;;;45.08;25.35;;;;;;;;;;4977107;28;20081;-77
2022/05/24 03:16:13;;;;;;;44.90;26.02;;;;;;;;;;4987723;28;20047;-78
2022/05/24 03:18:40;;;;;;;46.78;25.55;;;;;;;;;;4955339;28;20182;-77
2022/05/24 03:21:06;;;;;;;44.53;24.65;;;;;;;;;;4978523;28;20057;-77
2022/05/24 03:23:32;;;;;;;41.42;23.30;;;;;;;;;;4984294;28;20097;-77
2022/05/24 03:25:59;;;;;;;41.55;22.95;;;;;;;;;;4970999;28;20391;-78
2022/05/24 03:28:25;;;;;;;42.53;23.48;;;;;;;;;;4970808;28;20057;-77
2022/05/24 03:30:51;;;;;;;42.38;22.67;;;;;;;;;;4970355;28;20039;-77
2022/05/24 03:33:17;;;;;;;37.92;22.45;;;;;;;;;;4972621;28;20042;-77
2022/05/24 03:35:43;;;;;;;42.13;23.02;;;;;;;;;;5002278;28;20031;-77
2022/05/24 03:38:09;;;;;;;37.42;21.08;;;;;;;;;;4970666;28;20078;-77
2022/05/24 03:40:36;;;;;;;35.05;20.33;;;;;;;;;;4970595;28;20050;-78
2022/05/24 03:43:02;;;;;;;29.35;17.60;;;;;;;;;;4965689;28;20053;-77
2022/05/24 03:45:28;;;;;;;32.90;17.75;;;;;;;;;;4989634;28;20082;-78
2022/05/24 03:47:55;;;;;;;29.35;16.55;;;;;;;;;;4973477;28;20405;-77
2022/05/24 03:50:25;;;;;;;26.92;16.17;;;;;;;;;;4971879;28;20085;-77
2022/05/24 03:52:51;;;;;;;23.63;13.90;;;;;;;;;;4976910;28;20508;-77
2022/05/24 03:55:17;;;;;;;21.70;13.68;;;;;;;;;;4990131;28;20065;-76
2022/05/24 03:58:02;;;;;;;22.42;14.05;;;;;;;;;;4973912;28;20057;-77
2022/05/24 04:00:38;;;;;;;21.08;12.60;;;;;;;;;;4990387;28;20045;-77
2022/05/24 04:03:06;;;;;;;24.23;13.40;;;;;;;;;;4985537;28;20438;-77
2022/05/24 04:05:32;;;;;;;22.52;13.02;;;;;;;;;;5001983;28;20489;-77
2022/05/24 04:07:59;;;;;;;18.17;11.05;;;;;;;;;;4969763;28;20503;-77
2022/05/24 04:10:25;;;;;;;22.98;12.80;;;;;;;;;;4970931;28;20043;-77
2022/05/24 04:12:52;;;;;;;21.23;12.98;;;;;;;;;;4970459;28;20109;-77
2022/05/24 04:15:18;;;;;;;20.42;12.25;;;;;;;;;;4971947;28;20127;-77
2022/05/24 04:17:46;;;;;;;26.73;13.05;;;;;;;;;;4970087;28;20141;-76
2022/05/24 04:20:12;;;;;;;24.05;13.68;;;;;;;;;;4954968;28;20077;-76
2022/05/24 04:22:38;;;;;;;24.80;14.15;;;;;;;;;;4969916;28;20121;-77
2022/05/24 04:25:05;;;;;;;25.98;15.15;;;;;;;;;;4982983;28;20452;-77
2022/05/24 04:27:31;;;;;;;26.35;14.85;;;;;;;;;;4988212;28;20104;-76
2022/05/24 04:29:57;;;;;;;25.38;15.93;;;;;;;;;;4989590;28;20049;-77
2022/05/24 04:32:23;;;;;;;33.78;17.23;;;;;;;;;;4989431;28;20049;-77
2022/05/24 04:34:49;;;;;;;28.77;17.17;;;;;;;;;;4983550;28;20034;-78
2022/05/24 04:37:16;;;;;;;29.42;16.45;;;;;;;;;;5002689;28;20049;-77
2022/05/24 04:39:42;;;;;;;35.97;18.63;;;;;;;;;;4972288;28;20402;-77
2022/05/24 04:42:23;;;;;;;34.92;18.80;;;;;;;;;;4967991;28;20141;-77
2022/05/24 04:44:49;;;;;;;34.45;19.15;;;;;;;;;;4970053;28;20050;-78
2022/05/24 04:47:16;;;;;;;34.35;19.08;;;;;;;;;;4978678;28;20057;-78
2022/05/24 04:49:43;;;;;;;34.65;19.33;;;;;;;;;;4988969;28;20065;-77
2022/05/24 04:52:10;;;;;;;29.05;17.42;;;;;;;;;;4972249;28;20339;-78
2022/05/24 04:54:40;;;;;;;29.60;17.85;;;;;;;;;;4986258;28;20537;-77
2022/05/24 04:57:07;;;;;;;29.55;17.35;;;;;;;;;;4972555;28;20531;-77
2022/05/24 04:59:33;;;;;;;30.70;16.83;;;;;;;;;;4969907;28;20561;-78
2022/05/24 05:01:59;;;;;;;29.35;14.73;;;;;;;;;;4969395;28;20122;-78
2022/05/24 05:04:25;;;;;;;30.23;14.73;;;;;;;;;;4977033;28;20125;-77
2022/05/24 05:06:52;;;;;;;23.40;13.98;;;;;;;;;;4988729;28;20085;-77
2022/05/24 05:09:20;;;;;;;25.80;13.57;;;;;;;;;;4984974;28;20078;-77
2022/05/24 05:11:46;;;;;;;29.90;14.32;;;;;;;;;;4973264;28;20546;-78
2022/05/24 05:14:12;;;;;;;23.85;14.15;;;;;;;;;;4994151;28;20042;-78
2022/05/24 05:16:39;;;;;;;30.00;14.10;;;;;;;;;;4988052;28;20042;-79
2022/05/24 05:19:10;;;;;;;23.95;13.10;;;;;;;;;;4986379;28;20496;-79
2022/05/24 05:21:37;;;;;;;26.15;12.77;;;;;;;;;;4990734;28;20054;-79
2022/05/24 05:24:04;;;;;;;23.70;13.65;;;;;;;;;;4990492;28;20046;-78
2022/05/24 05:26:30;;;;;;;24.67;14.05;;;;;;;;;;4972630;28;20046;-77
2022/05/24 05:28:57;;;;;;;22.92;13.02;;;;;;;;;;4989840;28;20078;-77
2022/05/24 05:31:25;;;;;;;22.55;13.20;;;;;;;;;;4972071;28;20117;-77
2022/05/24 05:33:51;;;;;;;27.15;14.27;;;;;;;;;;4970663;28;20049;-81
2022/05/24 05:36:21;;;;;;;25.20;13.57;;;;;;;;;;4956642;28;20043;-77
2022/05/24 05:38:47;;;;;;;23.70;14.43;;;;;;;;;;4989375;28;20054;-78
2022/05/24 05:41:14;;;;;;;26.70;14.35;;;;;;;;;;4972820;28;20341;-78
2022/05/24 05:43:41;;;;;;;22.10;13.02;;;;;;;;;;4981377;28;20043;-78
2022/05/24 05:46:09;;;;;;;24.42;13.70;;;;;;;;;;4992186;28;20058;-77
2022/05/24 05:48:36;;;;;;;22.63;12.82;;;;;;;;;;4991627;28;20069;-77
2022/05/24 05:51:02;;;;;;;26.13;13.18;;;;;;;;;;4992103;28;20128;-78
2022/05/24 05:53:28;;;;;;;25.13;13.07;;;;;;;;;;4976192;28;20387;-78
2022/05/24 05:55:54;;;;;;;21.23;12.43;;;;;;;;;;4980664;28;20121;-79
2022/05/24 05:58:20;;;;;;;21.83;12.68;;;;;;;;;;4983312;28;20082;-78
2022/05/24 06:00:49;;;;;;;22.55;13.02;;;;;;;;;;4965805;28;20053;-78
2022/05/24 06:03:16;;;;;;;29.92;13.43;;;;;;;;;;4972353;28;20057;-79
2022/05/24 06:05:46;;;;;;;23.35;12.95;;;;;;;;;;4988986;28;20133;-79
2022/05/24 06:08:13;;;;;;;25.08;12.18;;;;;;;;;;4972168;28;20066;-78
2022/05/24 06:10:39;;;;;;;20.75;11.65;;;;;;;;;;4971962;28;20100;-79
2022/05/24 06:13:05;;;;;;;22.92;11.80;;;;;;;;;;4981127;28;20397;-77
2022/05/24 06:15:32;;;;;;;23.73;11.55;;;;;;;;;;4980945;28;20398;-78
2022/05/24 06:17:59;;;;;;;20.95;11.63;;;;;;;;;;4980386;28;20393;-78
2022/05/24 06:20:29;;;;;;;23.38;11.27;;;;;;;;;;4982911;28;20046;-78
2022/05/24 06:22:57;;;;;;;24.52;11.05;;;;;;;;;;4990798;28;20041;-78
2022/05/24 06:25:24;;;;;;;20.85;10.50;;;;;;;;;;4991166;28;20047;-78
2022/05/24 06:27:51;;;;;;;20.33;10.75;;;;;;;;;;4991429;28;20050;-78
2022/05/24 06:30:19;;;;;;;17.90;10.82;;;;;;;;;;4984546;28;20134;-79
2022/05/24 06:32:45;;;;;;;18.50;10.70;;;;;;;;;;5002920;28;20074;-78
2022/05/24 06:35:11;;;;;;;18.08;10.73;;;;;;;;;;4989409;28;20034;-79
2022/05/24 06:37:37;;;;;;;18.50;11.00;;;;;;;;;;4972419;28;20057;-78
2022/05/24 06:40:03;;;;;;;20.25;11.50;;;;;;;;;;4971574;28;20442;-78
2022/05/24 06:42:29;;;;;;;21.20;10.52;;;;;;;;;;4971211;28;20047;-77
2022/05/24 06:44:56;;;;;;;18.17;11.50;;;;;;;;;;4989878;28;20050;-77
2022/05/24 06:47:22;;;;;;;21.88;10.82;;;;;;;;;;4986499;28;20058;-77
2022/05/24 06:49:49;;;;;;;21.73;10.98;;;;;;;;;;4971557;28;20406;-78
2022/05/24 06:52:15;;;;;;;20.55;11.18;;;;;;;;;;5004146;28;20074;-78
2022/05/24 06:54:41;;;;;;;16.40;10.38;;;;;;;;;;4987496;28;20137;-78
2022/05/24 06:57:07;;;;;;;20.55;10.40;;;;;;;;;;4973325;28;20039;-78
2022/05/24 07:02:27;;;;;;;20.10;10.00;;;;;;;;;;5007027;28;20042;-79
2022/05/24 07:05:00;;;;;;;16.57;9.27;;;;;;;;;;4975008;28;20038;-78
2022/05/24 07:07:27;;;;;;;19.00;9.38;;;;;;;;;;4987425;28;20138;-77
2022/05/24 07:09:53;;;;;;;19.98;9.07;;;;;;;;;;4987659;28;20046;-78
2022/05/24 07:12:20;;;;;;;19.38;9.32;;;;;;;;;;4971167;28;20046;-77
2022/05/24 07:14:46;;;;;;;16.38;9.48;;;;;;;;;;4975841;28;20031;-79
2022/05/24 07:17:13;;;;;;;18.55;9.63;;;;;;;;;;4971350;28;20042;-78
2022/05/24 07:19:39;;;;;;;21.45;9.98;;;;;;;;;;4963186;28;20038;-80
2022/05/24 07:22:08;;;;;;;18.38;9.80;;;;;;;;;;4990883;28;20482;-78
2022/05/24 07:24:35;;;;;;;17.05;9.23;;;;;;;;;;4990174;28;20042;-78
2022/05/24 07:27:04;;;;;;;16.90;9.30;;;;;;;;;;4990302;28;20038;-82
2022/05/24 07:29:32;;;;;;;16.38;9.10;;;;;;;;;;4990037;28;20466;-78
2022/05/24 07:31:58;;;;;;;15.82;11.18;;;;;;;;;;4990252;28;20038;-80
2022/05/24 07:34:24;;;;;;;18.70;11.20;;;;;;;;;;4989130;28;20038;-78
2022/05/24 07:36:50;;;;;;;18.10;10.90;;;;;;;;;;4990071;28;20046;-79
2022/05/24 07:39:17;;;;;;;19.48;11.30;;;;;;;;;;5006452;28;20256;-81
2022/05/24 07:47:13;;;;;;;19.90;11.05;;;;;;;;;;5006630;28;20050;-79
2022/05/24 07:49:39;;;;;;;20.45;12.30;;;;;;;;;;4986010;28;20045;-78
2022/05/24 07:52:05;;;;;;;17.20;11.32;;;;;;;;;;4973691;28;20054;-78
2022/05/24 07:54:32;;;;;;;19.85;11.40;;;;;;;;;;4976131;28;20043;-78
2022/05/24 07:56:59;;;;;;;18.52;11.73;;;;;;;;;;4970458;28;20398;-77
2022/05/24 07:59:25;;;;;;;19.88;11.63;;;;;;;;;;4985777;28;20047;-78
2022/05/24 08:01:51;;;;;;;20.80;11.60;;;;;;;;;;4969896;28;20046;-77
2022/05/24 08:04:17;;;;;;;21.05;11.65;;;;;;;;;;4964773;28;20121;-76
2022/05/24 08:06:43;;;;;;;18.20;12.10;;;;;;;;;;4969304;28;20487;-77
2022/05/24 08:09:10;;;;;;;19.65;10.63;;;;;;;;;;4977394;28;20057;-78
2022/05/24 08:11:36;;;;;;;15.82;9.63;;;;;;;;;;4989275;28;20127;-79
2022/05/24 08:14:02;;;;;;;12.07;8.68;;;;;;;;;;4987846;28;20042;-80
2022/05/24 08:16:32;;;;;;;13.27;7.90;;;;;;;;;;4981381;28;20031;-78
2022/05/24 08:18:58;;;;;;;11.82;7.72;;;;;;;;;;4986161;28;20046;-78
2022/05/24 08:21:28;;;;;;;11.85;8.63;;;;;;;;;;4970205;28;20473;-77
2022/05/24 08:23:54;;;;;;;11.57;7.57;;;;;;;;;;4970267;28;20544;-78
2022/05/24 08:26:20;;;;;;;13.82;7.95;;;;;;;;;;4971304;28;20401;-78
2022/05/24 08:28:50;;;;;;;13.88;7.53;;;;;;;;;;4990522;28;20046;-77
2022/05/24 08:31:17;;;;;;;12.35;7.22;;;;;;;;;;4983345;28;20042;-78
2022/05/24 08:33:45;;;;;;;10.07;6.22;;;;;;;;;;4969738;28;20038;-73
2022/05/24 08:36:11;;;;;;;8.43;5.63;;;;;;;;;;4985789;28;20043;-75
2022/05/24 08:38:38;;;;;;;4.18;2.28;;;;;;;;;;4969235;28;20142;-70
2022/05/24 08:41:06;;;;;;;3.47;1.30;;;;;;;;;;4970660;28;20129;-71
2022/05/24 08:43:41;;;;;;;1.75;0.90;;;;;;;;;;4977160;28;20445;-70
2022/05/24 08:49:03;;;;;;;4.18;1.05;;;;;;;;;;4959627;28;20054;-70
2022/05/24 08:51:32;;;;;;;4.20;1.30;;;;;;;;;;4982298;28;20137;-71
2022/05/24 08:54:03;;;;;;;2.78;0.95;;;;;;;;;;4975063;28;20049;-72
2022/05/24 08:56:34;;;;;;;2.40;1.10;;;;;;;;;;4988812;28;20050;-70
2022/05/24 08:59:18;;;;;;;3.25;1.05;;;;;;;;;;4990310;28;20104;-71
2022/05/24 09:01:44;;;;;;;4.63;1.20;;;;;;;;;;4988977;28;20513;-80
2022/05/24 09:04:11;;;;;;;4.78;1.52;;;;;;;;;;4975774;28;20236;-75
2022/05/24 09:06:40;;;;;;;3.45;1.38;;;;;;;;;;4968920;28;20217;-76
2022/05/24 09:09:06;;;;;;;5.82;2.10;;;;;;;;;;4968990;28;20057;-74
2022/05/24 09:11:56;;;;;;;8.80;3.60;;;;;;;;;;4985831;28;20560;-76
2022/05/24 09:14:31;;;;;;;7.47;4.43;;;;;;;;;;5002144;28;20117;-76
2022/05/24 09:17:06;;;;;;;8.32;4.85;;;;;;;;;;4965577;28;20043;-75
2022/05/24 09:19:36;;;;;;;9.45;5.78;;;;;;;;;;4975877;28;20482;-75
2022/05/24 09:22:03;;;;;;;8.10;4.75;;;;;;;;;;4982114;28;20088;-75
2022/05/24 09:24:50;;;;;;;8.00;4.68;;;;;;;;;;4970262;28;20027;-76
2022/05/24 09:27:23;;;;;;;10.48;5.53;;;;;;;;;;4969472;28;20130;-76
2022/05/24 09:29:59;;;;;;;8.82;4.85;;;;;;;;;;4968400;28;20093;-76
2022/05/24 09:32:29;;;;;;;8.27;4.45;;;;;;;;;;4969248;28;20045;-75
2022/05/24 09:35:10;;;;;;;8.93;4.57;;;;;;;;;;4968494;28;20069;-76
2022/05/24 09:37:37;;;;;;;7.00;4.80;;;;;;;;;;4979525;28;20547;-76
2022/05/24 09:40:08;;;;;;;6.18;4.60;;;;;;;;;;4985342;28;20070;-76
2022/05/24 09:42:37;;;;;;;7.07;4.18;;;;;;;;;;4967434;28;20043;-78
2022/05/24 09:45:11;;;;;;;6.28;2.75;;;;;;;;;;5001536;28;20046;-77
2022/05/24 09:47:43;;;;;;;4.60;2.28;;;;;;;;;;4985826;28;20074;-81
2022/05/24 09:50:19;;;;;;;4.40;2.42;;;;;;;;;;4969403;28;20391;-76
2022/05/24 09:53:09;;;;;;;4.93;1.90;;;;;;;;;;5000636;28;20394;-76
2022/05/24 09:55:35;;;;;;;6.93;2.17;;;;;;;;;;5001467;28;20051;-76
2022/05/24 09:58:20;;;;;;;3.80;1.60;;;;;;;;;;4976736;28;20379;-75
2022/05/24 10:00:52;;;;;;;3.20;1.17;;;;;;;;;;4972467;28;21021;-76
2022/05/24 10:03:23;;;;;;;5.75;1.08;;;;;;;;;;4972686;28;20045;-74
2022/05/24 10:05:54;;;;;;;4.80;1.17;;;;;;;;;;4972266;28;20057;-74
2022/05/24 10:08:20;;;;;;;4.50;1.17;;;;;;;;;;4972222;28;20051;-75
2022/05/24 10:10:49;;;;;;;3.47;1.40;;;;;;;;;;4973569;28;20039;-75
2022/05/24 10:13:18;;;;;;;3.33;1.58;;;;;;;;;;4995600;28;20047;-76
2022/05/24 10:16:03;;;;;;;3.75;1.80;;;;;;;;;;4991527;28;20046;-75
2022/05/24 10:18:35;;;;;;;3.65;2.00;;;;;;;;;;4991386;28;20521;-78
2022/05/24 10:21:09;;;;;;;4.15;1.90;;;;;;;;;;4987423;28;20083;-75
2022/05/24 10:23:47;;;;;;;4.60;2.00;;;;;;;;;;4972189;28;20509;-78
2022/05/24 10:26:34;;;;;;;4.32;2.20;;;;;;;;;;4972550;28;20541;-75
2022/05/24 10:29:20;;;;;;;7.53;2.47;;;;;;;;;;4979039;28;20410;-74
2022/05/24 10:31:49;;;;;;;4.38;2.08;;;;;;;;;;4972338;28;20394;-75
2022/05/24 10:40:10;;;;;;;5.75;2.88;;;;;;;;;;5004685;28;20486;-77
2022/05/24 10:42:55;;;;;;;5.13;2.47;;;;;;;;;;4988442;28;20566;-74
2022/05/24 10:45:49;;;;;;;8.50;2.25;;;;;;;;;;4988226;28;20386;-75
2022/05/24 10:48:14;;;;;;;3.85;1.30;;;;;;;;;;5004214;28;20109;-76
2022/05/24 10:50:55;;;;;;;3.35;1.13;;;;;;;;;;4987917;28;20050;-76
2022/05/24 10:53:26;;;;;;;3.53;1.10;;;;;;;;;;4987276;28;20094;-75
2022/05/24 10:56:06;;;;;;;2.90;1.35;;;;;;;;;;4970414;28;20129;-76
2022/05/24 10:58:35;;;;;;;2.10;1.02;;;;;;;;;;4956642;28;20553;-75
2022/05/24 11:01:27;;;;;;;3.58;1.10;;;;;;;;;;4969724;28;20097;-77
2022/05/24 11:03:57;;;;;;;3.13;1.05;;;;;;;;;;4999329;28;20082;-75
2022/05/24 11:06:37;;;;;;;1.77;1.00;;;;;;;;;;4971413;28;20058;-75
2022/05/24 11:09:05;;;;;;;3.22;1.10;;;;;;;;;;4986933;28;20046;-75
2022/05/24 11:11:54;;;;;;;2.83;1.17;;;;;;;;;;4987206;28;20088;-75
2022/05/24 11:14:26;;;;;;;3.03;0.90;;;;;;;;;;4985097;28;20047;-78
2022/05/24 11:16:53;;;;;;;2.85;0.90;;;;;;;;;;4998820;28;20525;-76
2022/05/24 11:19:22;;;;;;;4.82;1.50;;;;;;;;;;4990378;28;20119;-74
2022/05/24 11:21:54;;;;;;;4.20;1.30;;;;;;;;;;4973648;28;20051;-74
2022/05/24 11:24:29;;;;;;;5.40;1.20;;;;;;;;;;4971150;28;20043;-75
2022/05/24 11:26:57;;;;;;;5.50;1.23;;;;;;;;;;4987027;28;20130;-76
2022/05/24 11:29:29;;;;;;;3.05;1.20;;;;;;;;;;4971341;28;20113;-75
2022/05/24 11:32:06;;;;;;;2.78;1.05;;;;;;;;;;4970502;28;20038;-76
2022/05/24 11:34:38;;;;;;;4.65;1.25;;;;;;;;;;4988101;28;20039;-75
2022/05/24 11:37:04;;;;;;;5.78;1.00;;;;;;;;;;5001478;28;20387;-77
2022/05/24 11:39:32;;;;;;;2.67;1.00;;;;;;;;;;4970538;28;20116;-74
2022/05/24 11:42:17;;;;;;;3.60;0.90;;;;;;;;;;4970297;28;20518;-75
2022/05/24 11:44:43;;;;;;;3.08;0.90;;;;;;;;;;4970009;28;20043;-74
2022/05/24 11:47:09;;;;;;;4.35;1.20;;;;;;;;;;4988551;28;20129;-76
2022/05/24 11:49:35;;;;;;;2.13;0.90;;;;;;;;;;4953399;28;20050;-76
2022/05/24 11:52:21;;;;;;;3.35;1.23;;;;;;;;;;4969190;28;20050;-77
2022/05/24 11:54:47;;;;;;;2.40;0.85;;;;;;;;;;4952487;28;20046;-75
2022/05/24 11:57:14;;;;;;;4.95;1.13;;;;;;;;;;4970474;28;20048;-76
2022/05/24 11:59:40;;;;;;;5.28;1.25;;;;;;;;;;4984548;28;20043;-75
2022/05/24 12:02:26;;;;;;;3.45;0.88;;;;;;;;;;4970115;28;20066;-76
2022/05/24 12:07:55;;;;;;;1.67;0.80;;;;;;;;;;4969761;28;20054;-77
2022/05/24 12:10:21;;;;;;;3.10;0.85;;;;;;;;;;4969998;28;20054;-77
2022/05/24 12:12:55;;;;;;;4.22;1.00;;;;;;;;;;4969692;28;20066;-76
2022/05/24 12:15:26;;;;;;;5.60;1.42;;;;;;;;;;4953887;28;20046;-76
2022/05/24 12:18:12;;;;;;;3.97;1.27;;;;;;;;;;4969768;28;20513;-77
2022/05/24 12:20:39;;;;;;;5.57;1.33;;;;;;;;;;4979046;28;20043;-78
2022/05/24 12:23:05;;;;;;;4.57;1.58;;;;;;;;;;4969600;28;20060;-77
2022/05/24 12:25:49;;;;;;;4.18;1.50;;;;;;;;;;4969863;28;20124;-77
2022/05/24 12:28:15;;;;;;;5.22;1.88;;;;;;;;;;4969984;28;20050;-76
2022/05/24 12:30:44;;;;;;;3.53;1.40;;;;;;;;;;4971661;28;20117;-77
2022/05/24 12:33:25;;;;;;;3.67;1.50;;;;;;;;;;4969882;28;20046;-76
2022/05/24 12:35:54;;;;;;;3.22;1.33;;;;;;;;;;4969388;28;20498;-76
2022/05/24 12:38:23;;;;;;;4.45;1.50;;;;;;;;;;4973263;28;20121;-76
2022/05/24 12:40:49;;;;;;;3.83;1.65;;;;;;;;;;4985318;28;20490;-79
2022/05/24 12:43:19;;;;;;;4.20;1.60;;;;;;;;;;4989189;28;20054;-76
2022/05/24 12:45:47;;;;;;;3.97;1.77;;;;;;;;;;4969033;28;20047;-78
2022/05/24 12:48:20;;;;;;;4.35;1.70;;;;;;;;;;4995872;28;20043;-76
2022/05/24 12:50:46;;;;;;;3.95;1.73;;;;;;;;;;4985500;28;20045;-76
2022/05/24 12:53:14;;;;;;;3.90;1.70;;;;;;;;;;5002082;28;20035;-77
2022/05/24 12:55:57;;;;;;;3.60;1.85;;;;;;;;;;4985577;28;20118;-75
2022/05/24 12:58:28;;;;;;;5.93;1.98;;;;;;;;;;5000877;28;20109;-77
2022/05/24 13:01:18;;;;;;;4.72;2.30;;;;;;;;;;4968876;28;20078;-72
2022/05/24 13:03:46;;;;;;;4.43;2.53;;;;;;;;;;4965636;28;20057;-73
2022/05/24 13:06:21;;;;;;;5.82;2.35;;;;;;;;;;4968154;28;20631;-75
2022/05/24 13:08:47;;;;;;;4.70;2.20;;;;;;;;;;4985310;28;20422;-72
2022/05/24 13:11:13;;;;;;;5.32;2.30;;;;;;;;;;4969324;28;20039;-71
2022/05/24 13:13:40;;;;;;;6.18;2.85;;;;;;;;;;4968612;28;20074;-73
2022/05/24 13:16:06;;;;;;;4.85;2.70;;;;;;;;;;4968550;28;20043;-73
2022/05/24 13:18:46;;;;;;;5.03;2.67;;;;;;;;;;4986088;28;20066;-72
2022/05/24 13:21:22;;;;;;;5.57;2.58;;;;;;;;;;4969146;28;20042;-72
2022/05/24 13:23:48;;;;;;;4.38;2.70;;;;;;;;;;4969388;28;20038;-73
2022/05/24 13:26:16;;;;;;;5.90;3.00;;;;;;;;;;4970464;28;20042;-73
2022/05/24 13:28:53;;;;;;;6.03;2.50;;;;;;;;;;4970204;28;20117;-72
2022/05/24 13:34:17;;;;;;;5.90;3.22;;;;;;;;;;4988885;28;20122;-73
2022/05/24 13:36:48;;;;;;;3.85;2.75;;;;;;;;;;4972418;28;20395;-74
2022/05/24 13:39:17;;;;;;;5.80;3.28;;;;;;;;;;4972740;28;20125;-74
2022/05/24 13:41:46;;;;;;;6.97;3.50;;;;;;;;;;4973487;28;20561;-72
2022/05/24 13:44:24;;;;;;;5.95;3.15;;;;;;;;;;4972389;28;20046;-72
2022/05/24 13:46:55;;;;;;;4.35;3.25;;;;;;;;;;4973867;28;20038;-73
2022/05/24 13:49:34;;;;;;;7.68;3.17;;;;;;;;;;4969504;28;20659;-78
2022/05/24 13:52:12;;;;;;;7.78;3.42;;;;;;;;;;4969811;28;20043;-73
2022/05/24 13:54:38;;;;;;;6.30;3.13;;;;;;;;;;5001655;28;20046;-73
2022/05/24 13:57:05;;;;;;;8.38;3.50;;;;;;;;;;4977431;28;20035;-74
2022/05/24 13:59:33;;;;;;;6.85;3.30;;;;;;;;;;4989726;28;20438;-78
2022/05/24 14:02:14;;;;;;;6.38;2.90;;;;;;;;;;4960591;28;20049;-74
2022/05/24 14:04:41;;;;;;;5.57;2.80;;;;;;;;;;4994862;28;20137;-73
2022/05/24 14:07:10;;;;;;;7.10;3.05;;;;;;;;;;4989587;28;20066;-76
2022/05/24 14:09:36;;;;;;;4.18;2.70;;;;;;;;;;4982669;28;20100;-76
2022/05/24 14:12:04;;;;;;;6.40;3.15;;;;;;;;;;4981304;28;20126;-78
2022/05/24 14:14:33;;;;;;;6.95;3.10;;;;;;;;;;4982055;28;20117;-74
2022/05/24 14:17:00;;;;;;;6.03;3.15;;;;;;;;;;4980978;28;20479;-75
2022/05/24 14:19:27;;;;;;;5.45;2.83;;;;;;;;;;4972215;28;20174;-77
2022/05/24 14:21:57;;;;;;;5.10;3.10;;;;;;;;;;4971892;28;20441;-75
2022/05/24 14:24:24;;;;;;;4.97;2.95;;;;;;;;;;4972266;28;20487;-76
2022/05/24 14:26:54;;;;;;;4.00;2.38;;;;;;;;;;4971389;28;20046;-73
2022/05/24 14:29:21;;;;;;;4.30;2.40;;;;;;;;;;4988043;28;20055;-77
2022/05/24 14:31:48;;;;;;;3.92;2.20;;;;;;;;;;4972756;28;20047;-75
2022/05/24 14:34:14;;;;;;;5.38;2.22;;;;;;;;;;4971650;28;20065;-80
2022/05/24 14:36:41;;;;;;;4.22;2.25;;;;;;;;;;4972136;28;20517;-77
2022/05/24 14:39:08;;;;;;;5.57;2.30;;;;;;;;;;4971268;28;20078;-77
2022/05/24 14:41:35;;;;;;;6.03;2.40;;;;;;;;;;4988076;28;20287;-77
2022/05/24 14:44:04;;;;;;;4.35;2.10;;;;;;;;;;4971062;28;20076;-78
2022/05/24 14:46:31;;;;;;;4.63;2.25;;;;;;;;;;4971115;28;20049;-74
2022/05/24 14:48:57;;;;;;;5.65;2.05;;;;;;;;;;4970833;28;20057;-74
2022/05/24 14:51:33;;;;;;;5.78;2.10;;;;;;;;;;4955369;28;20070;-75
2022/05/24 14:53:59;;;;;;;4.30;2.10;;;;;;;;;;4971346;28;20475;-78
2022/05/24 14:56:26;;;;;;;4.95;2.15;;;;;;;;;;4971077;28;20465;-76
2022/05/24 14:58:54;;;;;;;5.28;2.47;;;;;;;;;;4971414;28;20042;-78
2022/05/24 15:01:20;;;;;;;4.75;2.30;;;;;;;;;;4969446;28;20569;-74
2022/05/24 15:03:46;;;;;;;3.80;2.60;;;;;;;;;;4970326;28;20185;-75
2022/05/24 15:06:12;;;;;;;5.25;2.45;;;;;;;;;;4972523;28;20043;-75
2022/05/24 15:16:54;;;;;;;4.95;1.80;;;;;;;;;;4969895;28;20086;-78
2022/05/24 15:19:20;;;;;;;4.93;1.85;;;;;;;;;;4970654;28;20043;-78
2022/05/24 15:21:48;;;;;;;3.30;1.83;;;;;;;;;;4987026;28;20069;-78
2022/05/24 15:24:24;;;;;;;3.22;1.70;;;;;;;;;;4951121;28;20035;-78
2022/05/24 15:26:52;;;;;;;4.35;1.58;;;;;;;;;;4969665;28;20038;-78